Time;durP1;ratioP1;P1;durP2;ratioP2;P2;SDS_P1;SDS_P2;PMS_P1;PMS_P2;Temp;Humidity;BMP_temperature;BMP_pressure;BME280_temperature;BME280_humidity;BME280_pressure;Samples;Min_cycle;Max_cycle;Signal;HPM_P1;HPM_P2
2023/09/24 00:02:21;;;;;;;;;;;;;;;21.14;56.50;99263.81;67879;1276;1016186;-62
2023/09/24 00:05:23;;;;;;;15.60;5.00;;;;;;;21.10;56.34;99267.82;67870;1276;1016475;-64
2023/09/24 00:08:25;;;;;;;16.70;4.90;;;;;;;21.08;56.40;99277.49;67819;1276;1016008;-62
2023/09/24 00:11:28;;;;;;;;;;;;;;;21.09;56.15;99282.52;67906;1276;1016225;-62
2023/09/24 00:14:30;;;;;;;16.40;4.60;;;;;;;21.03;56.15;99284.17;67906;1276;1016428;-64
2023/09/24 00:17:33;;;;;;;17.90;4.80;;;;;;;20.98;56.51;99283.45;67822;1276;1015966;-63
2023/09/24 00:20:35;;;;;;;17.60;4.50;;;;;;;21.02;56.42;99278.49;67864;1276;1016278;-66
2023/09/24 00:23:38;;;;;;;15.10;4.30;;;;;;;21.07;56.14;99273.52;67859;1276;1016087;-62
2023/09/24 00:26:41;;;;;;;13.80;4.20;;;;;;;21.02;56.10;99271.19;67866;1276;1016056;-64
2023/09/24 00:29:43;;;;;;;16.30;4.30;;;;;;;20.91;56.24;99265.48;67850;1276;1019592;-62
2023/09/24 00:32:45;;;;;;;18.00;5.30;;;;;;;21.00;56.15;99267.82;67853;1276;1016344;-67
2023/09/24 00:35:48;;;;;;;16.80;4.50;;;;;;;20.93;56.38;99267.36;67894;1276;1016388;-66
2023/09/24 00:38:50;;;;;;;18.90;5.00;;;;;;;20.95;56.30;99272.13;67890;1276;1016218;-68
2023/09/24 00:41:55;;;;;;;12.90;4.40;;;;;;;21.02;56.03;99277.04;67876;1276;1016431;-66
2023/09/24 00:44:58;;;;;;;13.70;4.20;;;;;;;21.04;55.96;99278.22;67842;1276;1016476;-66
2023/09/24 00:48:00;;;;;;;18.20;4.80;;;;;;;21.00;56.02;99283.06;67848;1276;1016404;-63
2023/09/24 00:51:02;;;;;;;12.40;4.00;;;;;;;21.00;55.92;99285.40;67892;1276;1016403;-63
2023/09/24 00:54:05;;;;;;;19.40;4.70;;;;;;;21.11;55.72;99286.88;67853;1276;1016346;-63
2023/09/24 00:57:07;;;;;;;14.70;4.40;;;;;;;21.10;55.54;99286.38;67899;1276;1016410;-63
2023/09/24 01:00:11;;;;;;;16.80;5.00;;;;;;;21.11;55.55;99284.50;67845;1276;1016025;-63
2023/09/24 01:03:14;;;;;;;18.30;4.70;;;;;;;21.08;55.56;99285.33;67828;1276;1016132;-64
2023/09/24 01:06:18;;;;;;;18.50;4.20;;;;;;;21.02;55.29;99288.40;67900;1276;1016166;-66
2023/09/24 01:09:20;;;;;;;16.20;4.50;;;;;;;20.98;55.42;99284.95;67909;1276;1016437;-63
2023/09/24 01:12:23;;;;;;;16.50;4.90;;;;;;;20.92;55.56;99282.45;67888;1276;1016287;-62
2023/09/24 01:15:25;;;;;;;16.20;4.50;;;;;;;20.91;55.48;99278.57;67877;1276;1016041;-63
2023/09/24 01:18:27;;;;;;;18.40;4.60;;;;;;;20.94;55.49;99278.19;67837;1276;1017950;-64
2023/09/24 01:21:30;;;;;;;14.80;4.10;;;;;;;20.97;55.11;99278.23;67872;1276;1016376;-63
2023/09/24 01:24:32;;;;;;;16.60;4.00;;;;;;;20.96;55.16;99280.98;67869;1276;1016957;-63
2023/09/24 01:27:36;;;;;;;12.70;4.10;;;;;;;20.96;55.14;99288.06;67897;1276;1016436;-63
2023/09/24 01:30:39;;;;;;;16.60;4.40;;;;;;;21.07;54.90;99292.85;67905;1276;1016433;-63
2023/09/24 01:33:41;;;;;;;16.30;4.10;;;;;;;21.03;54.88;99302.50;67891;1276;1016230;-62
2023/09/24 01:36:44;;;;;;;17.80;4.70;;;;;;;20.99;54.94;99308.42;67860;1276;1016320;-64
2023/09/24 01:39:47;;;;;;;15.90;4.20;;;;;;;20.90;54.93;99323.98;67853;1276;1018488;-63
2023/09/24 01:42:51;;;;;;;19.10;4.60;;;;;;;21.00;54.69;99328.53;67898;1276;1016920;-64
2023/09/24 01:45:54;;;;;;;14.10;4.40;;;;;;;20.92;54.64;99332.06;67874;1276;1016161;-64
2023/09/24 01:48:56;;;;;;;15.90;4.20;;;;;;;20.76;54.86;99336.87;67889;1276;1016178;-62
2023/09/24 01:51:59;;;;;;;17.10;4.10;;;;;;;20.66;55.02;99342.51;67876;1276;1016030;-62
2023/09/24 01:55:01;;;;;;;17.90;4.70;;;;;;;20.56;55.15;99343.37;67877;1276;1016403;-62
2023/09/24 01:58:04;;;;;;;14.10;4.30;;;;;;;20.54;55.29;99348.96;67867;1276;1016443;-61
2023/09/24 02:01:07;;;;;;;16.70;4.20;;;;;;;20.64;55.05;99352.61;67836;1276;1018114;-61
2023/09/24 02:04:09;;;;;;;14.40;4.50;;;;;;;20.57;55.20;99351.27;67885;1276;1016307;-62
2023/09/24 02:07:14;;;;;;;16.20;4.30;;;;;;;20.57;55.00;99353.27;67934;1276;1016415;-61
2023/09/24 02:10:18;;;;;;;14.80;4.00;;;;;;;20.56;54.89;99347.30;67858;1276;1016402;-62
2023/09/24 02:13:21;;;;;;;15.10;4.40;;;;;;;20.62;54.88;99349.75;67864;1276;1016355;-64
2023/09/24 02:16:23;;;;;;;16.10;4.40;;;;;;;20.74;54.56;99340.17;67859;1276;1016707;-63
2023/09/24 02:19:26;;;;;;;13.60;4.20;;;;;;;20.83;54.36;99341.96;67899;1276;1016211;-63
2023/09/24 02:22:29;;;;;;;17.60;4.20;;;;;;;20.80;54.44;99347.91;67890;1276;1016274;-67
2023/09/24 02:25:31;;;;;;;12.30;3.90;;;;;;;20.85;54.60;99354.02;67878;1276;1017145;-64
2023/09/24 02:28:33;;;;;;;14.60;4.30;;;;;;;20.95;54.58;99369.46;67891;1276;1016439;-62
2023/09/24 02:31:36;;;;;;;15.10;4.30;;;;;;;20.99;54.63;99369.02;67897;1276;1016238;-62
2023/09/24 02:34:39;;;;;;;18.40;4.10;;;;;;;21.12;54.58;99374.74;67853;1276;1018421;-64
2023/09/24 02:37:44;;;;;;;16.90;4.60;;;;;;;21.28;54.19;99380.63;67882;1276;1016192;-62
2023/09/24 02:40:46;;;;;;;15.40;4.50;;;;;;;21.52;53.82;99379.27;67886;1276;1016511;-64
2023/09/24 02:43:49;;;;;;;16.60;4.20;;;;;;;21.57;53.59;99372.85;67905;1276;1015798;-63
2023/09/24 02:46:51;;;;;;;15.10;4.60;;;;;;;21.59;53.46;99373.41;67865;1276;1016465;-66
2023/09/24 02:49:54;;;;;;;16.60;4.20;;;;;;;21.68;53.31;99382.34;67870;1276;1015749;-64
2023/09/24 02:52:56;;;;;;;15.70;4.10;;;;;;;21.61;53.39;99386.93;67908;1276;1016447;-62
2023/09/24 02:55:58;;;;;;;14.30;4.10;;;;;;;21.65;53.52;99390.48;67893;1276;1015946;-65
2023/09/24 02:59:01;;;;;;;19.10;4.20;;;;;;;21.87;52.80;99395.03;67924;1276;1016027;-66
2023/09/24 03:02:03;;;;;;;14.80;4.10;;;;;;;21.92;52.74;99401.69;67893;1276;1016406;-66
2023/09/24 03:05:08;;;;;;;;;;;;;;;21.86;52.81;99405.66;67902;1276;1017208;-65
2023/09/24 03:08:11;;;;;;;15.20;4.70;;;;;;;21.55;53.41;99410.63;67905;1276;1015881;-62
2023/09/24 03:11:15;;;;;;;17.60;4.70;;;;;;;21.32;53.55;99420.45;67883;1276;1016481;-63
2023/09/24 03:14:17;;;;;;;16.70;5.40;;;;;;;21.28;53.61;99430.42;67887;1276;1016101;-62
2023/09/24 03:17:21;;;;;;;17.20;4.80;;;;;;;21.13;53.78;99429.38;67894;1276;1016727;-63
2023/09/24 03:20:23;;;;;;;16.40;4.70;;;;;;;20.83;53.92;99431.30;67867;1276;1016792;-64
2023/09/24 03:23:26;;;;;;;18.20;4.70;;;;;;;20.44;54.55;99441.52;67863;1276;1016425;-62
2023/09/24 03:26:28;;;;;;;16.00;4.50;;;;;;;20.20;55.19;99439.44;67904;1276;1016460;-63
2023/09/24 03:29:31;;;;;;;15.10;4.50;;;;;;;20.21;55.09;99441.28;67892;1276;1016049;-62
2023/09/24 03:32:34;;;;;;;13.30;4.30;;;;;;;20.15;55.20;99449.79;67913;1276;1016265;-61
2023/09/24 03:35:36;;;;;;;15.70;4.40;;;;;;;20.00;55.58;99451.16;67926;1276;1016535;-62
2023/09/24 03:38:39;;;;;;;15.60;4.40;;;;;;;19.95;55.67;99448.27;67839;1276;1016057;-63
2023/09/24 03:41:42;;;;;;;13.00;3.90;;;;;;;20.00;55.51;99451.73;67866;1276;1016232;-63
2023/09/24 03:44:44;;;;;;;15.20;4.60;;;;;;;19.95;55.70;99448.09;67891;1276;1016408;-63
2023/09/24 03:47:46;;;;;;;14.80;4.40;;;;;;;19.91;55.74;99449.17;67906;1276;1016440;-62
2023/09/24 03:50:49;;;;;;;19.00;4.80;;;;;;;19.95;55.68;99451.31;67904;1276;1016207;-65
2023/09/24 03:53:51;;;;;;;14.10;4.30;;;;;;;20.01;55.59;99453.92;67926;1276;1016426;-63
2023/09/24 03:56:54;;;;;;;;;;;;;;;20.09;55.48;99459.40;67898;1276;1016479;-63
2023/09/24 03:59:56;;;;;;;14.30;4.50;;;;;;;20.27;55.19;99463.95;67875;1276;1017910;-65
2023/09/24 04:02:58;;;;;;;14.40;4.70;;;;;;;20.38;55.20;99467.25;67892;1276;1016342;-62
2023/09/24 04:06:01;;;;;;;19.30;4.80;;;;;;;20.43;55.05;99472.13;67846;1276;1018398;-63
2023/09/24 04:09:03;;;;;;;12.90;4.30;;;;;;;20.35;54.83;99467.59;67932;1276;1016226;-62
2023/09/24 04:12:06;;;;;;;16.40;4.40;;;;;;;20.26;54.84;99470.64;67889;1276;1016281;-62
2023/09/24 04:15:08;;;;;;;;;;;;;;;20.16;55.00;99465.57;67897;1276;1016320;-62
2023/09/24 04:18:11;;;;;;;12.70;4.20;;;;;;;20.05;55.31;99471.52;67924;1276;1016338;-62
2023/09/24 04:21:14;;;;;;;15.70;4.40;;;;;;;19.98;55.40;99479.21;67879;1276;1016010;-63
2023/09/24 04:24:16;;;;;;;12.10;4.20;;;;;;;20.02;55.42;99482.73;67906;1276;1016204;-62
2023/09/24 04:27:19;;;;;;;16.20;4.50;;;;;;;20.07;55.46;99484.40;67920;1276;1016280;-63
2023/09/24 04:30:24;;;;;;;13.80;4.00;;;;;;;20.13;55.52;99476.25;67926;1276;1016342;-64
2023/09/24 04:33:26;;;;;;;14.70;4.50;;;;;;;20.25;55.34;99472.40;67889;1276;1016456;-63
2023/09/24 04:36:29;;;;;;;14.90;4.40;;;;;;;20.47;54.61;99475.85;67925;1276;1016529;-66
2023/09/24 04:39:31;;;;;;;;;;;;;;;20.36;54.92;99482.02;67917;1276;1016251;-63
2023/09/24 04:42:34;;;;;;;14.00;4.10;;;;;;;20.39;54.77;99486.88;67938;1276;1016416;-65
2023/09/24 04:45:37;;;;;;;16.00;4.50;;;;;;;20.33;55.04;99488.84;67876;1276;1017610;-63
2023/09/24 04:48:39;;;;;;;11.60;3.80;;;;;;;20.29;54.90;99494.02;67887;1276;1017016;-66
2023/09/24 04:51:41;;;;;;;14.50;4.40;;;;;;;20.24;55.03;99503.36;67912;1276;1015808;-64
2023/09/24 04:54:44;;;;;;;16.60;4.20;;;;;;;20.23;55.10;99503.95;67894;1276;1016450;-64
2023/09/24 04:57:47;;;;;;;14.30;4.20;;;;;;;20.26;54.94;99506.16;67832;1276;1016329;-66
2023/09/24 05:00:49;;;;;;;16.80;4.10;;;;;;;20.26;55.03;99512.79;67942;1276;1016219;-63
2023/09/24 05:03:51;;;;;;;18.40;4.30;;;;;;;20.25;54.94;99522.25;67924;1276;1016424;-64
2023/09/24 05:06:54;;;;;;;17.40;5.00;;;;;;;20.22;55.13;99526.06;67933;1276;1016358;-63
2023/09/24 05:09:56;;;;;;;14.00;4.00;;;;;;;20.19;55.26;99530.63;67874;1276;1019263;-62
2023/09/24 05:12:59;;;;;;;17.30;4.40;;;;;;;20.01;55.66;99538.79;67871;1276;1019783;-65
2023/09/24 05:16:01;;;;;;;16.80;4.40;;;;;;;19.93;55.93;99537.92;67919;1276;1017969;-63
2023/09/24 05:19:05;;;;;;;15.00;4.50;;;;;;;19.97;55.89;99536.15;67930;1276;1018543;-65
2023/09/24 05:22:07;;;;;;;16.50;4.50;;;;;;;19.90;56.07;99538.35;67917;1276;1016442;-64
2023/09/24 05:25:09;;;;;;;16.50;5.00;;;;;;;19.97;56.15;99544.49;67909;1276;1016915;-62
2023/09/24 05:28:12;;;;;;;22.80;4.80;;;;;;;20.47;55.10;99550.65;67906;1276;1016309;-64
2023/09/24 05:31:16;;;;;;;14.70;4.40;;;;;;;20.61;54.47;99558.94;67886;1276;1016369;-62
2023/09/24 05:34:18;;;;;;;16.00;4.90;;;;;;;20.63;54.23;99565.92;67909;1276;1016419;-64
2023/09/24 05:37:20;;;;;;;16.40;4.50;;;;;;;20.70;54.28;99569.57;67911;1276;1016468;-63
2023/09/24 05:40:23;;;;;;;15.90;4.60;;;;;;;20.74;54.17;99577.50;67881;1276;1016328;-62
2023/09/24 05:43:25;;;;;;;16.00;4.60;;;;;;;20.86;53.86;99580.37;67891;1276;1019935;-63
2023/09/24 05:46:27;;;;;;;15.10;4.80;;;;;;;20.91;54.17;99580.05;67913;1276;1016835;-63
2023/09/24 05:49:30;;;;;;;16.60;4.70;;;;;;;20.93;54.07;99575.30;67929;1276;1016448;-65
2023/09/24 05:52:32;;;;;;;16.00;4.30;;;;;;;21.09;54.04;99576.27;67928;1276;1016480;-65
2023/09/24 05:55:35;;;;;;;16.10;4.40;;;;;;;21.17;54.16;99582.88;67910;1276;1016407;-62
2023/09/24 05:58:37;;;;;;;17.80;4.60;;;;;;;21.09;53.71;99588.37;67912;1276;1016419;-64
2023/09/24 06:01:42;;;;;;;15.80;4.70;;;;;;;21.15;53.62;99595.45;67901;1276;1016448;-63
2023/09/24 06:04:44;;;;;;;15.50;4.80;;;;;;;21.12;53.92;99598.08;67910;1276;1016190;-63
2023/09/24 06:07:46;;;;;;;15.60;4.60;;;;;;;21.04;54.03;99601.11;67895;1276;1016564;-63
2023/09/24 06:10:49;;;;;;;14.50;4.60;;;;;;;21.08;53.81;99602.71;67926;1276;1016436;-63
2023/09/24 06:13:51;;;;;;;15.50;4.80;;;;;;;21.09;53.90;99598.50;67871;1276;1016495;-66
2023/09/24 06:16:54;;;;;;;14.40;5.00;;;;;;;21.09;53.80;99599.56;67902;1276;1016429;-63
2023/09/24 06:19:56;;;;;;;17.00;5.00;;;;;;;21.23;53.95;99599.20;67880;1276;1016474;-66
2023/09/24 06:22:58;;;;;;;17.20;4.80;;;;;;;21.44;53.80;99597.70;67933;1276;1016659;-66
2023/09/24 06:26:02;;;;;;;14.80;5.00;;;;;;;21.63;53.55;99595.81;67919;1276;1015860;-66
2023/09/24 06:29:04;;;;;;;17.20;4.50;;;;;;;21.79;53.09;99596.77;67897;1276;1016531;-65
2023/09/24 06:32:06;;;;;;;14.10;4.60;;;;;;;21.80;52.91;99598.27;67896;1276;1016402;-68
2023/09/24 06:35:09;;;;;;;15.40;4.70;;;;;;;21.84;52.68;99611.61;67900;1276;1016163;-67
2023/09/24 06:38:11;;;;;;;;;;;;;;;21.78;52.57;99617.84;67910;1276;1015734;-68
2023/09/24 06:41:14;;;;;;;15.60;4.80;;;;;;;21.70;52.69;99621.16;67929;1276;1016728;-65
2023/09/24 06:44:16;;;;;;;;;;;;;;;21.57;52.73;99623.02;67882;1276;1016467;-63
2023/09/24 06:47:19;;;;;;;14.70;4.90;;;;;;;21.52;53.12;99621.56;67926;1276;1017816;-63
2023/09/24 06:50:21;;;;;;;14.80;4.80;;;;;;;21.53;53.29;99619.70;67920;1276;1016452;-65
2023/09/24 06:53:24;;;;;;;21.70;5.00;;;;;;;21.72;52.81;99621.50;67892;1276;1016389;-66
2023/09/24 06:56:26;;;;;;;;;;;;;;;21.79;52.62;99618.63;67891;1276;1016027;-64
2023/09/24 06:59:28;;;;;;;15.70;5.10;;;;;;;21.84;52.41;99615.51;67889;1276;1016449;-66
2023/09/24 07:02:31;;;;;;;15.60;4.90;;;;;;;21.78;52.55;99614.67;67904;1276;1016141;-66
2023/09/24 07:05:33;;;;;;;14.00;4.70;;;;;;;21.90;52.46;99615.29;67922;1276;1017367;-67
2023/09/24 07:08:36;;;;;;;15.90;5.10;;;;;;;22.08;52.48;99615.57;67904;1276;1016317;-64
2023/09/24 07:11:38;;;;;;;15.40;5.00;;;;;;;22.06;51.85;99626.61;67885;1276;1016481;-68
2023/09/24 07:14:41;;;;;;;18.60;4.90;;;;;;;22.01;51.94;99635.85;67901;1276;1016267;-66
2023/09/24 07:17:43;;;;;;;18.50;5.10;;;;;;;22.05;51.93;99643.28;67929;1276;1016346;-63
2023/09/24 07:20:46;;;;;;;15.40;4.90;;;;;;;22.12;52.12;99647.72;67920;1276;1017414;-64
2023/09/24 07:23:50;;;;;;;17.10;5.00;;;;;;;22.28;51.89;99652.81;67866;1276;1016422;-64
2023/09/24 07:26:53;;;;;;;17.50;5.00;;;;;;;22.47;51.47;99658.52;67915;1276;1016325;-64
2023/09/24 07:29:55;;;;;;;17.30;4.80;;;;;;;22.52;51.51;99657.81;67938;1276;1016475;-68
2023/09/24 07:32:58;;;;;;;15.80;4.70;;;;;;;22.66;51.42;99656.46;67919;1276;1016246;-64
2023/09/24 07:36:00;;;;;;;13.40;4.60;;;;;;;22.91;51.09;99657.91;67874;1276;1016262;-62
2023/09/24 07:39:03;;;;;;;13.00;4.90;;;;;;;22.98;50.90;99663.80;67886;1276;1016867;-63
2023/09/24 07:42:06;;;;;;;14.40;4.70;;;;;;;22.94;51.63;99671.75;67888;1276;1016399;-67
2023/09/24 07:45:09;;;;;;;13.10;4.20;;;;;;;23.02;51.46;99677.14;67906;1276;1016507;-63
2023/09/24 07:48:14;;;;;;;;;;;;;;;23.19;50.96;99674.45;67918;1276;1016506;-66
2023/09/24 07:51:17;;;;;;;15.90;4.50;;;;;;;23.22;50.79;99676.67;67865;1276;1016457;-63
2023/09/24 07:54:19;;;;;;;13.30;4.70;;;;;;;23.28;50.75;99675.66;67890;1276;1016471;-69
2023/09/24 07:57:22;;;;;;;14.00;4.70;;;;;;;23.27;51.00;99676.50;67934;1276;1016782;-65
2023/09/24 08:00:24;;;;;;;15.50;4.70;;;;;;;23.25;50.71;99681.86;67906;1276;1016687;-66
2023/09/24 08:03:27;;;;;;;16.70;4.80;;;;;;;23.27;50.38;99694.84;67868;1276;1016377;-63
2023/09/24 08:06:29;;;;;;;13.30;4.40;;;;;;;23.38;50.38;99699.79;67898;1276;1016482;-66
2023/09/24 08:09:32;;;;;;;17.70;4.80;;;;;;;23.67;49.86;99699.08;67927;1276;1016830;-63
2023/09/24 08:12:34;;;;;;;;;;;;;;;23.75;49.86;99697.00;67873;1276;1016485;-63
2023/09/24 08:15:37;;;;;;;;;;;;;;;23.69;49.91;99701.02;67863;1276;1018778;-64
2023/09/24 08:18:39;;;;;;;17.50;4.90;;;;;;;23.76;49.88;99706.55;67886;1276;1016179;-66
2023/09/24 08:21:42;;;;;;;15.30;4.70;;;;;;;23.90;49.84;99712.95;67867;1276;1016311;-69
2023/09/24 08:24:44;;;;;;;14.80;4.70;;;;;;;24.05;49.77;99715.13;67865;1276;1016490;-63
2023/09/24 08:27:47;;;;;;;;;;;;;;;24.21;49.88;99712.56;67872;1276;1016450;-64
2023/09/24 08:30:49;;;;;;;15.50;4.40;;;;;;;24.32;49.14;99715.27;67904;1276;1016371;-65
2023/09/24 08:33:52;;;;;;;14.30;4.60;;;;;;;24.29;49.13;99714.45;67898;1276;1016308;-63
2023/09/24 08:36:55;;;;;;;12.40;4.00;;;;;;;24.54;49.31;99721.73;67857;1254;1016480;-65
2023/09/24 08:39:57;;;;;;;;;;;;;;;24.81;48.88;99730.00;67878;1276;1016420;-63
2023/09/24 08:43:00;;;;;;;12.20;4.10;;;;;;;24.99;48.31;99729.52;67918;1276;1017271;-64
2023/09/24 08:46:02;;;;;;;;;;;;;;;25.26;47.56;99730.02;67907;1276;1016293;-65
2023/09/24 08:49:05;;;;;;;17.90;4.10;;;;;;;25.18;47.49;99729.20;67878;1276;1016338;-66
2023/09/24 08:52:07;;;;;;;16.10;4.00;;;;;;;25.02;46.91;99735.98;67862;1276;1016574;-67
2023/09/24 08:55:10;;;;;;;10.50;3.90;;;;;;;24.94;47.56;99737.55;67888;1276;1016510;-64
2023/09/24 08:58:12;;;;;;;12.00;3.50;;;;;;;25.06;47.67;99741.66;67914;1276;1016262;-66
2023/09/24 09:01:14;;;;;;;;;;;;;;;25.10;47.71;99742.92;67870;1276;1017238;-65
2023/09/24 09:04:17;;;;;;;14.50;4.00;;;;;;;24.81;47.28;99740.83;67872;1276;1016136;-62
2023/09/24 09:07:19;;;;;;;;;;;;;;;24.62;47.92;99735.73;67832;1276;1016484;-64
2023/09/24 09:10:22;;;;;;;12.60;3.50;;;;;;;24.62;48.21;99743.38;67794;1276;1167692;-64
2023/09/24 09:13:24;;;;;;;;;;;;;;;24.64;47.35;99747.17;67914;1276;1018133;-65
2023/09/24 09:16:27;;;;;;;11.00;3.40;;;;;;;24.52;47.73;99739.04;67906;1276;1016127;-64
2023/09/24 09:19:31;;;;;;;10.10;3.30;;;;;;;24.51;47.32;99741.88;67881;1276;1016205;-65
2023/09/24 09:22:35;;;;;;;12.70;3.70;;;;;;;24.43;47.90;99740.34;67912;1276;1016180;-69
2023/09/24 09:25:37;;;;;;;10.50;3.20;;;;;;;24.63;47.76;99740.50;67857;1276;1016284;-65
2023/09/24 09:28:40;;;;;;;10.30;3.30;;;;;;;24.49;47.56;99740.80;67892;1276;1018880;-64
2023/09/24 09:31:42;;;;;;;;;;;;;;;24.49;47.57;99743.66;67904;1276;1016442;-66
2023/09/24 09:34:45;;;;;;;13.30;3.90;;;;;;;24.72;47.22;99748.40;67887;1276;1016899;-63
2023/09/24 09:37:47;;;;;;;;;;;;;;;24.93;47.65;99746.70;67885;1276;1016988;-64
2023/09/24 09:40:49;;;;;;;12.00;3.50;;;;;;;24.90;47.45;99748.45;67850;1276;1016481;-65
2023/09/24 09:43:52;;;;;;;;;;;;;;;24.92;47.27;99752.04;67865;1276;1016298;-66
2023/09/24 09:46:54;;;;;;;9.90;3.00;;;;;;;25.02;46.97;99748.77;67887;1276;1016426;-64
2023/09/24 09:49:58;;;;;;;;;;;;;;;25.12;47.40;99747.54;67909;1276;1016480;-64
2023/09/24 09:53:00;;;;;;;8.90;3.10;;;;;;;25.20;47.21;99749.60;67852;1276;1016488;-65
2023/09/24 09:56:03;;;;;;;8.80;3.10;;;;;;;25.18;46.94;99755.88;67917;1276;1016391;-65
2023/09/24 09:59:05;;;;;;;6.40;2.50;;;;;;;25.29;46.17;99757.98;67889;1276;1016247;-64
2023/09/24 10:02:08;;;;;;;;;;;;;;;25.50;46.85;99753.35;67885;1276;1016328;-63
2023/09/24 10:05:10;;;;;;;6.20;2.30;;;;;;;25.57;44.86;99754.74;67863;1276;1016320;-67
2023/09/24 10:08:13;;;;;;;;;;;;;;;25.40;44.77;99753.18;67906;1276;1016518;-64
2023/09/24 10:11:15;;;;;;;8.70;2.30;;;;;;;25.33;44.61;99749.23;67883;1276;1016368;-65
2023/09/24 10:14:17;;;;;;;;;;;;;;;25.23;44.59;99744.07;67900;1276;1015845;-64
2023/09/24 10:17:20;;;;;;;7.80;2.70;;;;;;;25.30;45.25;99746.23;67878;1276;1016394;-64
2023/09/24 10:20:22;;;;;;;;;;;;;;;25.35;44.29;99747.67;67856;1276;1016476;-66
2023/09/24 10:23:24;;;;;;;11.00;2.80;;;;;;;25.34;44.29;99747.96;67874;1276;1016496;-63
2023/09/24 10:26:27;;;;;;;;;;;;;;;25.39;44.72;99746.16;67883;1276;1016374;-64
2023/09/24 10:29:29;;;;;;;7.10;2.40;;;;;;;25.46;44.94;99745.36;67874;1276;1016409;-68
2023/09/24 10:32:32;;;;;;;;;;;;;;;25.56;44.81;99747.40;67889;1276;1016522;-66
2023/09/24 10:35:34;;;;;;;5.40;2.50;;;;;;;25.44;44.29;99742.56;67850;1276;1016492;-64
2023/09/24 10:38:37;;;;;;;7.80;2.60;;;;;;;25.55;44.67;99740.11;67843;1276;1016316;-67
2023/09/24 10:41:39;;;;;;;6.50;2.30;;;;;;;25.92;45.12;99735.90;67883;1276;1016185;-64
2023/09/24 10:44:42;;;;;;;6.20;2.00;;;;;;;26.23;44.46;99738.34;67868;1276;1016436;-65
2023/09/24 10:47:45;;;;;;;7.20;2.20;;;;;;;26.33;42.99;99738.11;67883;1276;1016466;-67
2023/09/24 10:50:47;;;;;;;6.50;2.20;;;;;;;26.22;42.87;99744.90;67899;1276;1016065;-65
2023/09/24 10:53:50;;;;;;;7.20;2.20;;;;;;;26.15;42.96;99743.04;67901;1276;1016152;-65
2023/09/24 10:56:52;;;;;;;10.80;2.30;;;;;;;25.89;43.75;99740.52;67911;1276;1016552;-63
2023/09/24 10:59:55;;;;;;;8.50;2.40;;;;;;;25.71;43.76;99739.09;67867;1276;1016501;-63
2023/09/24 11:02:57;;;;;;;9.40;2.40;;;;;;;25.68;43.54;99733.52;67849;1276;1016433;-64
2023/09/24 11:06:01;;;;;;;7.40;2.10;;;;;;;25.67;43.22;99737.90;67914;1276;1016395;-64
2023/09/24 11:09:04;;;;;;;9.60;2.30;;;;;;;25.84;42.65;99740.29;67879;1276;1018090;-64
2023/09/24 11:12:06;;;;;;;8.70;2.00;;;;;;;25.71;42.42;99743.93;67896;1276;1016060;-66
2023/09/24 11:15:09;;;;;;;6.90;2.30;;;;;;;25.75;42.87;99739.60;67886;1276;1016794;-65
2023/09/24 11:18:11;;;;;;;6.90;2.10;;;;;;;25.80;43.00;99735.70;67869;1276;1018706;-65
2023/09/24 11:21:14;;;;;;;5.50;2.10;;;;;;;26.06;43.00;99727.88;67857;1276;1016481;-63
2023/09/24 11:24:16;;;;;;;8.90;2.30;;;;;;;26.02;42.57;99730.63;67897;1276;1016436;-62
2023/09/24 11:27:19;;;;;;;9.20;2.20;;;;;;;25.78;42.41;99737.27;67894;1276;1016372;-65
2023/09/24 11:30:21;;;;;;;9.30;2.60;;;;;;;25.80;42.17;99733.40;67855;1276;1016201;-62
2023/09/24 11:33:24;;;;;;;6.40;1.90;;;;;;;26.11;42.00;99735.18;67859;1276;1015989;-64
2023/09/24 11:36:28;;;;;;;7.80;2.10;;;;;;;26.38;41.88;99735.02;67902;1276;1016397;-63
2023/09/24 11:39:30;;;;;;;8.80;2.10;;;;;;;26.58;41.67;99733.91;67868;1276;1016647;-63
2023/09/24 11:42:33;;;;;;;4.10;1.70;;;;;;;26.75;40.55;99740.55;67900;1276;1016501;-63
2023/09/24 11:45:35;;;;;;;8.90;2.10;;;;;;;26.86;40.75;99733.42;67871;1276;1016519;-63
2023/09/24 11:48:38;;;;;;;6.70;1.90;;;;;;;27.13;40.42;99727.95;67849;1276;1016403;-64
2023/09/24 11:51:40;;;;;;;6.60;1.90;;;;;;;27.09;40.10;99728.18;67851;1276;1016476;-63
2023/09/24 11:54:42;;;;;;;7.20;2.10;;;;;;;27.14;39.78;99731.70;67877;1276;1016413;-62
2023/09/24 11:57:45;;;;;;;6.10;1.90;;;;;;;27.08;40.44;99729.58;67884;1276;1016435;-65
2023/09/24 12:00:47;;;;;;;6.70;2.00;;;;;;;27.05;40.11;99736.84;67843;1276;1016218;-62
2023/09/24 12:03:50;;;;;;;6.20;2.10;;;;;;;27.07;40.47;99733.48;67859;1276;1016500;-66
2023/09/24 12:06:52;;;;;;;7.70;2.00;;;;;;;27.34;40.42;99737.35;67902;1276;1015963;-66
2023/09/24 12:09:55;;;;;;;7.00;1.90;;;;;;;27.46;40.15;99736.48;67856;1276;1016361;-64
2023/09/24 12:13:01;;;;;;;5.80;1.60;;;;;;;27.40;39.89;99738.46;67872;1276;1016343;-62
2023/09/24 12:16:03;;;;;;;4.00;1.50;;;;;;;27.37;38.86;99743.08;67871;1276;1016916;-64
2023/09/24 12:19:06;;;;;;;8.90;1.80;;;;;;;27.26;39.21;99746.72;67840;1276;1019386;-66
2023/09/24 12:22:08;;;;;;;3.70;1.40;;;;;;;27.64;38.50;99755.27;67822;1276;1018236;-63
2023/09/24 12:25:10;;;;;;;4.60;1.40;;;;;;;28.05;37.82;99755.41;67876;1276;1016384;-66
2023/09/24 12:28:14;;;;;;;4.80;1.60;;;;;;;28.28;38.10;99754.10;67906;1276;1016277;-65
2023/09/24 12:31:16;;;;;;;3.30;1.30;;;;;;;28.19;37.22;99749.98;67878;1276;1016323;-67
2023/09/24 12:34:19;;;;;;;5.00;1.60;;;;;;;27.62;37.95;99754.91;67887;1276;1016220;-65
2023/09/24 12:37:21;;;;;;;5.50;1.40;;;;;;;27.63;38.66;99755.19;67883;1276;1016213;-67
2023/09/24 12:40:24;;;;;;;3.90;1.40;;;;;;;27.67;38.40;99751.66;67850;1276;1016857;-64
2023/09/24 12:43:26;;;;;;;5.90;1.50;;;;;;;27.32;38.00;99752.14;67824;1276;1018646;-64
2023/09/24 12:46:28;;;;;;;5.00;1.50;;;;;;;26.97;38.16;99755.08;67849;1276;1016405;-64
2023/09/24 12:49:31;;;;;;;4.00;1.80;;;;;;;26.73;38.38;99755.52;67847;1276;1018775;-65
2023/09/24 12:52:33;;;;;;;4.50;1.20;;;;;;;26.59;38.54;99757.64;67904;1276;1016544;-64
2023/09/24 12:55:36;;;;;;;4.90;1.60;;;;;;;26.49;39.04;99758.59;67843;1276;1016407;-65
2023/09/24 12:58:38;;;;;;;5.60;1.60;;;;;;;26.53;39.44;99755.95;67833;1276;1016305;-63
2023/09/24 13:01:41;;;;;;;4.40;1.40;;;;;;;26.72;39.49;99754.88;67860;1276;1016433;-63
2023/09/24 13:04:43;;;;;;;3.60;1.40;;;;;;;26.81;38.64;99753.69;67875;1276;1016345;-64
2023/09/24 13:07:46;;;;;;;6.70;1.60;;;;;;;26.78;38.91;99755.86;67872;1276;1016263;-65
2023/09/24 13:10:48;;;;;;;3.80;1.70;;;;;;;26.96;38.75;99758.79;67830;1276;1016346;-64
2023/09/24 13:13:51;;;;;;;3.10;1.50;;;;;;;27.00;38.60;99754.98;67850;1276;1016426;-63
2023/09/24 13:16:53;;;;;;;4.40;1.70;;;;;;;26.82;37.82;99758.10;67853;1276;1019169;-64
2023/09/24 13:19:56;;;;;;;6.40;1.70;;;;;;;26.68;38.51;99759.66;67866;1276;1016278;-66
2023/09/24 13:22:58;;;;;;;6.40;1.50;;;;;;;26.88;38.32;99766.71;67862;1276;1016402;-64
2023/09/24 13:26:00;;;;;;;7.50;1.90;;;;;;;26.92;38.76;99761.02;67844;1276;1016340;-64
2023/09/24 13:29:03;;;;;;;3.20;1.50;;;;;;;27.30;39.18;99757.80;67874;1276;1017420;-66
2023/09/24 13:32:05;;;;;;;7.40;1.80;;;;;;;27.46;38.62;99765.11;67870;1276;1016343;-67
2023/09/24 13:35:07;;;;;;;4.70;1.50;;;;;;;27.36;37.82;99771.88;67886;1276;1015652;-64
2023/09/24 13:38:10;;;;;;;4.10;1.50;;;;;;;27.15;37.92;99769.88;67887;1276;1017776;-67
2023/09/24 13:41:12;;;;;;;4.90;1.70;;;;;;;27.15;38.08;99765.31;67866;1276;1015831;-66
2023/09/24 13:44:15;;;;;;;6.40;1.70;;;;;;;27.58;37.90;99763.99;67849;1276;1016254;-66
2023/09/24 13:47:17;;;;;;;4.10;1.50;;;;;;;27.85;37.62;99765.31;67892;1276;1016366;-64
2023/09/24 13:50:20;;;;;;;5.50;1.70;;;;;;;28.30;37.38;99757.45;67873;1276;1016331;-63
2023/09/24 13:53:22;;;;;;;9.10;1.80;;;;;;;28.62;37.04;99753.95;67858;1276;1016349;-63
2023/09/24 13:56:25;;;;;;;7.70;1.60;;;;;;;28.58;36.35;99755.00;67842;1276;1016487;-64
2023/09/24 13:59:27;;;;;;;5.80;1.70;;;;;;;28.26;35.93;99757.93;67854;1276;1016444;-64
2023/09/24 14:02:29;;;;;;;7.00;1.70;;;;;;;28.16;36.52;99761.52;67883;1276;1016262;-63